Terminal Aerodrome Forecast
Issued by NWS Caribou, ME

Home | Current Version | Previous Version | Text Only | Print | Product List | Glossary On
Versions: 1 2 3 4 5 6 7 8 9 10 11 12 13 14 15 16 17 18 19 20
000
FTUS41 KCAR 271501 AAB
TAFCAR
TAF AMD
KCAR 271501Z 2715/2812 12008KT 6SM -SN OVC035
     FM271800 14009KT 1SM -SN OVC008
     FM272300 14007KT 2SM -SN OVC015
     FM280500 13006KT P6SM OVC025
     FM280600 13006KT 6SM BR OVC008=

USA.gov is the U.S. government's official web portal to all federal, state and local government web resources and services.